sensor_id;sensor_type;location;lat;lon;timestamp;temperature;humidity
12769;DHT22;6448;48.916;8.990;2023-02-15T00:00:23;7.00;56.50
12769;DHT22;6448;48.916;8.990;2023-02-15T00:01:24;7.00;56.50
12769;DHT22;6448;48.916;8.990;2023-02-15T00:02:26;7.00;56.60
12769;DHT22;6448;48.916;8.990;2023-02-15T00:03:27;7.00;56.60
12769;DHT22;6448;48.916;8.990;2023-02-15T00:04:30;7.00;56.60
12769;DHT22;6448;48.916;8.990;2023-02-15T00:05:45;6.90;56.60
12769;DHT22;6448;48.916;8.990;2023-02-15T00:06:47;7.00;56.80
12769;DHT22;6448;48.916;8.990;2023-02-15T00:07:48;7.00;56.80
12769;DHT22;6448;48.916;8.990;2023-02-15T00:08:50;7.00;56.80
12769;DHT22;6448;48.916;8.990;2023-02-15T00:09:55;7.00;56.90
12769;DHT22;6448;48.916;8.990;2023-02-15T00:11:04;6.90;56.90
12769;DHT22;6448;48.916;8.990;2023-02-15T00:12:06;7.00;57.00
12769;DHT22;6448;48.916;8.990;2023-02-15T00:13:07;7.00;57.00
12769;DHT22;6448;48.916;8.990;2023-02-15T00:14:10;7.00;57.10
12769;DHT22;6448;48.916;8.990;2023-02-15T00:15:12;6.90;57.10
12769;DHT22;6448;48.916;8.990;2023-02-15T00:16:14;6.90;57.20
12769;DHT22;6448;48.916;8.990;2023-02-15T00:17:15;7.00;57.20
12769;DHT22;6448;48.916;8.990;2023-02-15T00:18:17;7.00;57.30
12769;DHT22;6448;48.916;8.990;2023-02-15T00:19:19;6.90;57.30
12769;DHT22;6448;48.916;8.990;2023-02-15T00:20:23;6.90;57.30
12769;DHT22;6448;48.916;8.990;2023-02-15T00:21:23;6.90;57.40
12769;DHT22;6448;48.916;8.990;2023-02-15T00:22:25;6.90;57.40
12769;DHT22;6448;48.916;8.990;2023-02-15T00:23:27;6.90;57.50
12769;DHT22;6448;48.916;8.990;2023-02-15T00:24:28;6.90;57.50
12769;DHT22;6448;48.916;8.990;2023-02-15T00:25:30;6.90;57.50
12769;DHT22;6448;48.916;8.990;2023-02-15T00:26:31;7.00;57.60
12769;DHT22;6448;48.916;8.990;2023-02-15T00:27:33;6.90;57.60
12769;DHT22;6448;48.916;8.990;2023-02-15T00:28:37;7.00;57.60
12769;DHT22;6448;48.916;8.990;2023-02-15T00:29:38;6.90;57.60
12769;DHT22;6448;48.916;8.990;2023-02-15T00:30:39;7.00;57.70
12769;DHT22;6448;48.916;8.990;2023-02-15T00:31:42;7.00;57.80
12769;DHT22;6448;48.916;8.990;2023-02-15T00:32:42;6.90;57.90
12769;DHT22;6448;48.916;8.990;2023-02-15T00:33:46;7.00;57.90
12769;DHT22;6448;48.916;8.990;2023-02-15T00:34:47;7.00;58.00
12769;DHT22;6448;48.916;8.990;2023-02-15T00:35:55;7.00;58.00
12769;DHT22;6448;48.916;8.990;2023-02-15T00:36:56;7.00;58.00
12769;DHT22;6448;48.916;8.990;2023-02-15T00:37:58;7.00;58.00
12769;DHT22;6448;48.916;8.990;2023-02-15T00:38:59;7.00;58.10
12769;DHT22;6448;48.916;8.990;2023-02-15T00:40:01;7.00;58.10
12769;DHT22;6448;48.916;8.990;2023-02-15T00:41:03;7.00;58.10
12769;DHT22;6448;48.916;8.990;2023-02-15T00:42:05;7.00;58.20
12769;DHT22;6448;48.916;8.990;2023-02-15T00:43:06;7.00;58.30
12769;DHT22;6448;48.916;8.990;2023-02-15T00:44:08;7.00;58.30
12769;DHT22;6448;48.916;8.990;2023-02-15T00:45:09;7.00;58.30
12769;DHT22;6448;48.916;8.990;2023-02-15T00:46:12;6.90;58.30
12769;DHT22;6448;48.916;8.990;2023-02-15T00:47:13;6.90;58.30
12769;DHT22;6448;48.916;8.990;2023-02-15T00:48:15;6.90;58.30
12769;DHT22;6448;48.916;8.990;2023-02-15T00:49:16;6.90;58.40
12769;DHT22;6448;48.916;8.990;2023-02-15T00:50:18;6.90;58.50
12769;DHT22;6448;48.916;8.990;2023-02-15T00:51:21;6.90;58.50
12769;DHT22;6448;48.916;8.990;2023-02-15T00:52:23;6.90;58.50
12769;DHT22;6448;48.916;8.990;2023-02-15T00:53:25;6.90;58.50
12769;DHT22;6448;48.916;8.990;2023-02-15T00:54:27;6.90;58.60
12769;DHT22;6448;48.916;8.990;2023-02-15T00:55:28;6.90;58.70
12769;DHT22;6448;48.916;8.990;2023-02-15T00:56:31;6.90;58.60
12769;DHT22;6448;48.916;8.990;2023-02-15T00:57:32;6.90;58.70
12769;DHT22;6448;48.916;8.990;2023-02-15T00:58:33;6.90;58.70
12769;DHT22;6448;48.916;8.990;2023-02-15T00:59:34;6.90;58.70
12769;DHT22;6448;48.916;8.990;2023-02-15T01:00:36;6.90;58.70
12769;DHT22;6448;48.916;8.990;2023-02-15T01:01:37;6.90;58.70
12769;DHT22;6448;48.916;8.990;2023-02-15T01:02:39;6.90;58.80
12769;DHT22;6448;48.916;8.990;2023-02-15T01:03:40;6.80;58.80
12769;DHT22;6448;48.916;8.990;2023-02-15T01:04:43;6.80;58.80
12769;DHT22;6448;48.916;8.990;2023-02-15T01:05:44;6.80;58.90
12769;DHT22;6448;48.916;8.990;2023-02-15T01:06:48;6.80;59.00
12769;DHT22;6448;48.916;8.990;2023-02-15T01:07:49;6.80;59.00
12769;DHT22;6448;48.916;8.990;2023-02-15T01:08:51;6.80;59.10
12769;DHT22;6448;48.916;8.990;2023-02-15T01:09:52;6.80;59.10
12769;DHT22;6448;48.916;8.990;2023-02-15T01:10:54;6.80;59.10
12769;DHT22;6448;48.916;8.990;2023-02-15T01:11:55;6.80;59.10
12769;DHT22;6448;48.916;8.990;2023-02-15T01:12:57;6.80;59.10
12769;DHT22;6448;48.916;8.990;2023-02-15T01:13:58;6.80;59.10
12769;DHT22;6448;48.916;8.990;2023-02-15T01:15:00;6.80;59.20
12769;DHT22;6448;48.916;8.990;2023-02-15T01:16:01;6.80;59.10
12769;DHT22;6448;48.916;8.990;2023-02-15T01:17:03;6.80;59.20
12769;DHT22;6448;48.916;8.990;2023-02-15T01:18:04;6.80;59.10
12769;DHT22;6448;48.916;8.990;2023-02-15T01:19:05;6.80;59.10
12769;DHT22;6448;48.916;8.990;2023-02-15T01:20:07;6.80;59.10
12769;DHT22;6448;48.916;8.990;2023-02-15T01:21:10;6.90;59.20
12769;DHT22;6448;48.916;8.990;2023-02-15T01:22:15;6.90;59.20
12769;DHT22;6448;48.916;8.990;2023-02-15T01:23:16;6.90;59.20
12769;DHT22;6448;48.916;8.990;2023-02-15T01:24:20;6.90;59.20
12769;DHT22;6448;48.916;8.990;2023-02-15T01:25:22;6.90;59.20
12769;DHT22;6448;48.916;8.990;2023-02-15T01:26:24;6.90;59.30
12769;DHT22;6448;48.916;8.990;2023-02-15T01:27:26;6.90;59.30
12769;DHT22;6448;48.916;8.990;2023-02-15T01:28:27;6.90;59.30
12769;DHT22;6448;48.916;8.990;2023-02-15T01:29:29;6.90;59.30
12769;DHT22;6448;48.916;8.990;2023-02-15T01:30:30;6.90;59.40
12769;DHT22;6448;48.916;8.990;2023-02-15T01:31:32;6.90;59.30
12769;DHT22;6448;48.916;8.990;2023-02-15T01:32:32;6.90;59.30
12769;DHT22;6448;48.916;8.990;2023-02-15T01:33:35;7.00;59.40
12769;DHT22;6448;48.916;8.990;2023-02-15T01:34:36;6.90;59.30
12769;DHT22;6448;48.916;8.990;2023-02-15T01:35:38;6.90;59.30
12769;DHT22;6448;48.916;8.990;2023-02-15T01:36:39;6.90;59.30
12769;DHT22;6448;48.916;8.990;2023-02-15T01:37:43;6.90;59.30
12769;DHT22;6448;48.916;8.990;2023-02-15T01:38:44;6.90;59.30
12769;DHT22;6448;48.916;8.990;2023-02-15T01:39:46;6.90;59.30
12769;DHT22;6448;48.916;8.990;2023-02-15T01:40:47;6.90;59.30
12769;DHT22;6448;48.916;8.990;2023-02-15T01:41:51;6.90;59.30
12769;DHT22;6448;48.916;8.990;2023-02-15T01:42:53;6.90;59.30
12769;DHT22;6448;48.916;8.990;2023-02-15T01:43:57;6.90;59.30
12769;DHT22;6448;48.916;8.990;2023-02-15T01:45:00;7.10;59.40
12769;DHT22;6448;48.916;8.990;2023-02-15T01:46:02;6.90;59.40
12769;DHT22;6448;48.916;8.990;2023-02-15T01:47:03;6.90;59.40
12769;DHT22;6448;48.916;8.990;2023-02-15T01:48:11;6.90;59.40
12769;DHT22;6448;48.916;8.990;2023-02-15T01:49:19;6.90;59.40
12769;DHT22;6448;48.916;8.990;2023-02-15T01:50:25;6.90;59.40
12769;DHT22;6448;48.916;8.990;2023-02-15T01:51:30;7.00;59.40
12769;DHT22;6448;48.916;8.990;2023-02-15T01:52:35;6.90;59.40
12769;DHT22;6448;48.916;8.990;2023-02-15T01:53:42;6.90;59.40
12769;DHT22;6448;48.916;8.990;2023-02-15T01:54:47;7.00;59.40
12769;DHT22;6448;48.916;8.990;2023-02-15T01:55:51;6.90;59.40
12769;DHT22;6448;48.916;8.990;2023-02-15T01:56:58;7.00;59.40
12769;DHT22;6448;48.916;8.990;2023-02-15T01:58:00;6.90;59.40
12769;DHT22;6448;48.916;8.990;2023-02-15T01:59:07;6.90;59.40
12769;DHT22;6448;48.916;8.990;2023-02-15T02:00:10;6.90;59.40
12769;DHT22;6448;48.916;8.990;2023-02-15T02:01:15;6.90;59.40
12769;DHT22;6448;48.916;8.990;2023-02-15T02:02:17;6.90;59.40
12769;DHT22;6448;48.916;8.990;2023-02-15T02:03:25;6.90;59.40
12769;DHT22;6448;48.916;8.990;2023-02-15T02:04:32;6.90;59.50
12769;DHT22;6448;48.916;8.990;2023-02-15T02:05:38;6.90;59.50
12769;DHT22;6448;48.916;8.990;2023-02-15T02:06:39;6.90;59.50
12769;DHT22;6448;48.916;8.990;2023-02-15T02:07:44;6.90;59.50
12769;DHT22;6448;48.916;8.990;2023-02-15T02:08:48;6.90;59.50
12769;DHT22;6448;48.916;8.990;2023-02-15T02:09:50;6.90;59.60
12769;DHT22;6448;48.916;8.990;2023-02-15T02:10:50;6.90;59.60
12769;DHT22;6448;48.916;8.990;2023-02-15T02:11:52;6.90;59.50
12769;DHT22;6448;48.916;8.990;2023-02-15T02:12:57;6.90;59.50
12769;DHT22;6448;48.916;8.990;2023-02-15T02:13:59;7.00;59.60
12769;DHT22;6448;48.916;8.990;2023-02-15T02:15:00;6.90;59.60
12769;DHT22;6448;48.916;8.990;2023-02-15T02:16:08;6.90;59.60
12769;DHT22;6448;48.916;8.990;2023-02-15T02:17:16;6.80;59.60
12769;DHT22;6448;48.916;8.990;2023-02-15T02:18:27;6.90;59.60
12769;DHT22;6448;48.916;8.990;2023-02-15T02:19:53;7.00;59.60
12769;DHT22;6448;48.916;8.990;2023-02-15T02:23:01;6.80;59.50
12769;DHT22;6448;48.916;8.990;2023-02-15T02:24:23;6.80;59.50
12769;DHT22;6448;48.916;8.990;2023-02-15T02:26:12;6.80;59.50
12769;DHT22;6448;48.916;8.990;2023-02-15T02:27:30;6.80;59.70
12769;DHT22;6448;48.916;8.990;2023-02-15T02:28:55;6.80;59.70
12769;DHT22;6448;48.916;8.990;2023-02-15T02:30:25;6.80;59.80
12769;DHT22;6448;48.916;8.990;2023-02-15T02:31:57;6.70;59.70
12769;DHT22;6448;48.916;8.990;2023-02-15T02:33:29;6.80;59.80
12769;DHT22;6448;48.916;8.990;2023-02-15T02:34:37;6.80;59.80
12769;DHT22;6448;48.916;8.990;2023-02-15T02:35:46;6.80;59.80
12769;DHT22;6448;48.916;8.990;2023-02-15T02:36:57;6.80;59.80
12769;DHT22;6448;48.916;8.990;2023-02-15T02:38:04;6.70;59.80
12769;DHT22;6448;48.916;8.990;2023-02-15T02:39:18;6.80;59.80
12769;DHT22;6448;48.916;8.990;2023-02-15T02:40:28;6.80;59.80
12769;DHT22;6448;48.916;8.990;2023-02-15T02:41:36;6.80;59.80
12769;DHT22;6448;48.916;8.990;2023-02-15T02:42:41;6.80;59.90
12769;DHT22;6448;48.916;8.990;2023-02-15T02:43:48;6.80;59.90
12769;DHT22;6448;48.916;8.990;2023-02-15T02:44:56;6.80;59.80
12769;DHT22;6448;48.916;8.990;2023-02-15T02:46:05;6.80;59.80
12769;DHT22;6448;48.916;8.990;2023-02-15T02:47:12;6.80;59.80
12769;DHT22;6448;48.916;8.990;2023-02-15T02:48:18;6.80;59.80
12769;DHT22;6448;48.916;8.990;2023-02-15T02:49:33;6.80;59.80
12769;DHT22;6448;48.916;8.990;2023-02-15T02:50:35;6.80;59.80
12769;DHT22;6448;48.916;8.990;2023-02-15T02:51:35;6.80;59.80
12769;DHT22;6448;48.916;8.990;2023-02-15T02:52:40;6.80;59.80
12769;DHT22;6448;48.916;8.990;2023-02-15T02:53:41;6.80;59.70
12769;DHT22;6448;48.916;8.990;2023-02-15T02:54:43;6.80;59.60
12769;DHT22;6448;48.916;8.990;2023-02-15T02:55:47;6.80;59.70
12769;DHT22;6448;48.916;8.990;2023-02-15T02:56:51;6.80;59.60
12769;DHT22;6448;48.916;8.990;2023-02-15T02:57:56;6.80;59.60
12769;DHT22;6448;48.916;8.990;2023-02-15T02:59:01;6.80;59.70
12769;DHT22;6448;48.916;8.990;2023-02-15T03:00:05;6.90;59.70
12769;DHT22;6448;48.916;8.990;2023-02-15T03:01:12;6.80;59.60
12769;DHT22;6448;48.916;8.990;2023-02-15T03:02:18;6.80;59.60
12769;DHT22;6448;48.916;8.990;2023-02-15T03:03:27;6.80;59.40
12769;DHT22;6448;48.916;8.990;2023-02-15T03:04:34;6.80;59.40
12769;DHT22;6448;48.916;8.990;2023-02-15T03:05:40;6.80;59.50
12769;DHT22;6448;48.916;8.990;2023-02-15T03:06:46;6.80;59.50
12769;DHT22;6448;48.916;8.990;2023-02-15T03:07:50;6.80;59.40
12769;DHT22;6448;48.916;8.990;2023-02-15T03:08:58;6.80;59.50
12769;DHT22;6448;48.916;8.990;2023-02-15T03:10:03;6.80;59.60
12769;DHT22;6448;48.916;8.990;2023-02-15T03:11:05;6.80;59.50
12769;DHT22;6448;48.916;8.990;2023-02-15T03:12:08;6.70;59.40
12769;DHT22;6448;48.916;8.990;2023-02-15T03:13:14;6.80;59.40
12769;DHT22;6448;48.916;8.990;2023-02-15T03:14:18;6.70;59.40
12769;DHT22;6448;48.916;8.990;2023-02-15T03:15:21;6.70;59.40
12769;DHT22;6448;48.916;8.990;2023-02-15T03:16:25;6.70;59.40
12769;DHT22;6448;48.916;8.990;2023-02-15T03:17:27;6.70;59.50
12769;DHT22;6448;48.916;8.990;2023-02-15T03:18:35;6.70;59.50
12769;DHT22;6448;48.916;8.990;2023-02-15T03:19:40;6.70;59.50
12769;DHT22;6448;48.916;8.990;2023-02-15T03:20:44;6.70;59.40
12769;DHT22;6448;48.916;8.990;2023-02-15T03:21:48;6.70;59.40
12769;DHT22;6448;48.916;8.990;2023-02-15T03:23:01;6.70;59.40
12769;DHT22;6448;48.916;8.990;2023-02-15T03:24:08;6.70;59.50
12769;DHT22;6448;48.916;8.990;2023-02-15T03:25:14;6.70;59.50
12769;DHT22;6448;48.916;8.990;2023-02-15T03:26:18;6.70;59.60
12769;DHT22;6448;48.916;8.990;2023-02-15T03:27:23;6.70;59.60
12769;DHT22;6448;48.916;8.990;2023-02-15T03:28:30;6.70;59.60
12769;DHT22;6448;48.916;8.990;2023-02-15T03:29:33;6.70;59.50
12769;DHT22;6448;48.916;8.990;2023-02-15T03:30:38;6.70;59.40
12769;DHT22;6448;48.916;8.990;2023-02-15T03:31:42;6.70;59.50
12769;DHT22;6448;48.916;8.990;2023-02-15T03:32:45;6.70;59.50
12769;DHT22;6448;48.916;8.990;2023-02-15T03:33:52;6.70;59.50
12769;DHT22;6448;48.916;8.990;2023-02-15T03:34:57;6.70;59.50
12769;DHT22;6448;48.916;8.990;2023-02-15T03:36:02;6.60;59.60
12769;DHT22;6448;48.916;8.990;2023-02-15T03:37:10;6.70;59.70
12769;DHT22;6448;48.916;8.990;2023-02-15T03:38:18;6.70;59.70
12769;DHT22;6448;48.916;8.990;2023-02-15T03:39:24;6.60;59.60
12769;DHT22;6448;48.916;8.990;2023-02-15T03:40:34;6.60;59.60
12769;DHT22;6448;48.916;8.990;2023-02-15T03:41:58;6.60;59.60
12769;DHT22;6448;48.916;8.990;2023-02-15T03:43:07;6.60;59.60
12769;DHT22;6448;48.916;8.990;2023-02-15T03:44:14;6.70;59.70
12769;DHT22;6448;48.916;8.990;2023-02-15T03:45:24;6.70;59.60
12769;DHT22;6448;48.916;8.990;2023-02-15T03:46:29;6.60;59.50
12769;DHT22;6448;48.916;8.990;2023-02-15T03:47:35;6.70;59.60
12769;DHT22;6448;48.916;8.990;2023-02-15T03:48:39;6.60;59.50
12769;DHT22;6448;48.916;8.990;2023-02-15T03:49:44;6.60;59.60
12769;DHT22;6448;48.916;8.990;2023-02-15T03:50:50;6.60;59.60
12769;DHT22;6448;48.916;8.990;2023-02-15T03:52:11;6.60;59.50
12769;DHT22;6448;48.916;8.990;2023-02-15T03:53:16;6.60;59.50
12769;DHT22;6448;48.916;8.990;2023-02-15T03:54:22;6.60;59.50
12769;DHT22;6448;48.916;8.990;2023-02-15T03:55:46;6.60;59.60
12769;DHT22;6448;48.916;8.990;2023-02-15T03:56:48;6.60;59.50
12769;DHT22;6448;48.916;8.990;2023-02-15T03:58:09;6.60;59.50
12769;DHT22;6448;48.916;8.990;2023-02-15T03:59:28;6.60;59.50
12769;DHT22;6448;48.916;8.990;2023-02-15T04:00:51;6.60;59.40
12769;DHT22;6448;48.916;8.990;2023-02-15T04:02:20;6.60;59.30
12769;DHT22;6448;48.916;8.990;2023-02-15T04:03:28;6.60;59.40
12769;DHT22;6448;48.916;8.990;2023-02-15T04:04:34;6.60;59.40
12769;DHT22;6448;48.916;8.990;2023-02-15T04:05:36;6.60;59.50
12769;DHT22;6448;48.916;8.990;2023-02-15T04:06:38;6.60;59.50
12769;DHT22;6448;48.916;8.990;2023-02-15T04:07:40;6.60;59.50
12769;DHT22;6448;48.916;8.990;2023-02-15T04:08:40;6.60;59.40
12769;DHT22;6448;48.916;8.990;2023-02-15T04:10:00;6.60;59.40
12769;DHT22;6448;48.916;8.990;2023-02-15T04:11:19;6.60;59.40
12769;DHT22;6448;48.916;8.990;2023-02-15T04:12:21;6.60;59.30
12769;DHT22;6448;48.916;8.990;2023-02-15T04:13:24;6.60;59.30
12769;DHT22;6448;48.916;8.990;2023-02-15T04:14:31;6.60;59.40
12769;DHT22;6448;48.916;8.990;2023-02-15T04:15:50;6.60;59.50
12769;DHT22;6448;48.916;8.990;2023-02-15T04:17:05;6.50;59.40
12769;DHT22;6448;48.916;8.990;2023-02-15T04:18:06;6.50;59.40
12769;DHT22;6448;48.916;8.990;2023-02-15T04:19:07;6.60;59.50
12769;DHT22;6448;48.916;8.990;2023-02-15T04:20:26;6.50;59.30
12769;DHT22;6448;48.916;8.990;2023-02-15T04:21:47;6.50;59.30
12769;DHT22;6448;48.916;8.990;2023-02-15T04:23:06;6.60;59.50
12769;DHT22;6448;48.916;8.990;2023-02-15T04:24:25;6.50;59.50
12769;DHT22;6448;48.916;8.990;2023-02-15T04:25:45;6.50;59.50
12769;DHT22;6448;48.916;8.990;2023-02-15T04:26:47;6.50;59.30
12769;DHT22;6448;48.916;8.990;2023-02-15T04:27:49;6.50;59.40
12769;DHT22;6448;48.916;8.990;2023-02-15T04:28:51;6.50;59.60
12769;DHT22;6448;48.916;8.990;2023-02-15T04:29:52;6.50;59.50
12769;DHT22;6448;48.916;8.990;2023-02-15T04:30:54;6.50;59.50
12769;DHT22;6448;48.916;8.990;2023-02-15T04:31:56;6.60;59.50
12769;DHT22;6448;48.916;8.990;2023-02-15T04:32:58;6.50;59.50
12769;DHT22;6448;48.916;8.990;2023-02-15T04:33:59;6.50;59.40
12769;DHT22;6448;48.916;8.990;2023-02-15T04:35:01;6.50;59.40
12769;DHT22;6448;48.916;8.990;2023-02-15T04:36:02;6.50;59.50
12769;DHT22;6448;48.916;8.990;2023-02-15T04:37:05;6.50;59.50
12769;DHT22;6448;48.916;8.990;2023-02-15T04:38:06;6.50;59.50
12769;DHT22;6448;48.916;8.990;2023-02-15T04:39:08;6.50;59.50
12769;DHT22;6448;48.916;8.990;2023-02-15T04:40:13;6.50;59.50
12769;DHT22;6448;48.916;8.990;2023-02-15T04:41:15;6.50;59.50
12769;DHT22;6448;48.916;8.990;2023-02-15T04:42:15;6.50;59.40
12769;DHT22;6448;48.916;8.990;2023-02-15T04:43:17;6.50;59.40
12769;DHT22;6448;48.916;8.990;2023-02-15T04:44:18;6.50;59.40
12769;DHT22;6448;48.916;8.990;2023-02-15T04:45:20;6.50;59.50
12769;DHT22;6448;48.916;8.990;2023-02-15T04:46:20;6.50;59.60
12769;DHT22;6448;48.916;8.990;2023-02-15T04:47:22;6.50;59.50
12769;DHT22;6448;48.916;8.990;2023-02-15T04:48:23;6.70;59.60
12769;DHT22;6448;48.916;8.990;2023-02-15T04:49:25;6.50;59.50
12769;DHT22;6448;48.916;8.990;2023-02-15T04:50:26;6.50;59.50
12769;DHT22;6448;48.916;8.990;2023-02-15T04:51:28;6.50;59.40
12769;DHT22;6448;48.916;8.990;2023-02-15T04:52:30;6.50;59.40
12769;DHT22;6448;48.916;8.990;2023-02-15T04:53:32;6.50;59.40
12769;DHT22;6448;48.916;8.990;2023-02-15T04:54:32;6.50;59.30
12769;DHT22;6448;48.916;8.990;2023-02-15T04:55:34;6.50;59.40
12769;DHT22;6448;48.916;8.990;2023-02-15T04:56:35;6.50;59.40
12769;DHT22;6448;48.916;8.990;2023-02-15T04:57:38;6.50;59.40
12769;DHT22;6448;48.916;8.990;2023-02-15T04:58:39;6.50;59.40
12769;DHT22;6448;48.916;8.990;2023-02-15T04:59:41;6.50;59.40
12769;DHT22;6448;48.916;8.990;2023-02-15T05:00:42;6.50;59.40
12769;DHT22;6448;48.916;8.990;2023-02-15T05:01:44;6.50;59.40
12769;DHT22;6448;48.916;8.990;2023-02-15T05:02:44;6.50;59.40
12769;DHT22;6448;48.916;8.990;2023-02-15T05:03:46;6.50;59.40
12769;DHT22;6448;48.916;8.990;2023-02-15T05:04:47;6.50;59.40
12769;DHT22;6448;48.916;8.990;2023-02-15T05:05:49;6.50;59.40
12769;DHT22;6448;48.916;8.990;2023-02-15T05:06:50;6.50;59.40
12769;DHT22;6448;48.916;8.990;2023-02-15T05:07:53;6.50;59.40
12769;DHT22;6448;48.916;8.990;2023-02-15T05:08:54;6.50;59.40
12769;DHT22;6448;48.916;8.990;2023-02-15T05:09:56;6.50;59.40
12769;DHT22;6448;48.916;8.990;2023-02-15T05:10:58;6.50;59.40
12769;DHT22;6448;48.916;8.990;2023-02-15T05:11:58;6.50;59.30
12769;DHT22;6448;48.916;8.990;2023-02-15T05:13:00;6.60;59.40
12769;DHT22;6448;48.916;8.990;2023-02-15T05:14:01;6.50;59.30
12769;DHT22;6448;48.916;8.990;2023-02-15T05:15:03;6.50;59.30
12769;DHT22;6448;48.916;8.990;2023-02-15T05:16:04;6.50;59.20
12769;DHT22;6448;48.916;8.990;2023-02-15T05:17:06;6.60;59.30
12769;DHT22;6448;48.916;8.990;2023-02-15T05:18:07;6.50;59.20
12769;DHT22;6448;48.916;8.990;2023-02-15T05:19:09;6.60;59.20
12769;DHT22;6448;48.916;8.990;2023-02-15T05:20:10;6.60;59.20
12769;DHT22;6448;48.916;8.990;2023-02-15T05:21:12;6.60;59.20
12769;DHT22;6448;48.916;8.990;2023-02-15T05:22:14;6.60;59.20
12769;DHT22;6448;48.916;8.990;2023-02-15T05:23:17;6.50;59.20
12769;DHT22;6448;48.916;8.990;2023-02-15T05:24:17;6.60;59.20
12769;DHT22;6448;48.916;8.990;2023-02-15T05:25:37;6.60;59.20
12769;DHT22;6448;48.916;8.990;2023-02-15T05:26:56;6.60;59.20
12769;DHT22;6448;48.916;8.990;2023-02-15T05:28:15;6.60;59.20
12769;DHT22;6448;48.916;8.990;2023-02-15T05:29:23;6.50;59.10
12769;DHT22;6448;48.916;8.990;2023-02-15T05:30:24;6.50;59.10
12769;DHT22;6448;48.916;8.990;2023-02-15T05:31:26;6.50;59.00
12769;DHT22;6448;48.916;8.990;2023-02-15T05:32:26;6.50;59.10
12769;DHT22;6448;48.916;8.990;2023-02-15T05:33:28;6.60;59.00
12769;DHT22;6448;48.916;8.990;2023-02-15T05:34:29;6.50;59.00
12769;DHT22;6448;48.916;8.990;2023-02-15T05:35:32;6.50;59.00
12769;DHT22;6448;48.916;8.990;2023-02-15T05:36:33;6.50;58.90
12769;DHT22;6448;48.916;8.990;2023-02-15T05:37:34;6.50;58.90
12769;DHT22;6448;48.916;8.990;2023-02-15T05:38:37;6.50;58.90
12769;DHT22;6448;48.916;8.990;2023-02-15T05:39:39;6.50;58.90
12769;DHT22;6448;48.916;8.990;2023-02-15T05:40:40;6.50;58.90
12769;DHT22;6448;48.916;8.990;2023-02-15T05:41:42;6.50;58.90
12769;DHT22;6448;48.916;8.990;2023-02-15T05:42:42;6.40;58.90
12769;DHT22;6448;48.916;8.990;2023-02-15T05:43:44;6.40;59.00
12769;DHT22;6448;48.916;8.990;2023-02-15T05:44:45;6.40;59.00
12769;DHT22;6448;48.916;8.990;2023-02-15T05:45:47;6.40;59.10
12769;DHT22;6448;48.916;8.990;2023-02-15T05:46:48;6.40;59.10
12769;DHT22;6448;48.916;8.990;2023-02-15T05:47:49;6.40;59.10
12769;DHT22;6448;48.916;8.990;2023-02-15T05:48:51;6.40;59.20
12769;DHT22;6448;48.916;8.990;2023-02-15T05:49:52;6.40;59.10
12769;DHT22;6448;48.916;8.990;2023-02-15T05:50:58;6.40;59.10
12769;DHT22;6448;48.916;8.990;2023-02-15T05:51:59;6.40;59.10
12769;DHT22;6448;48.916;8.990;2023-02-15T05:53:00;6.40;59.10
12769;DHT22;6448;48.916;8.990;2023-02-15T05:54:03;6.40;59.10
12769;DHT22;6448;48.916;8.990;2023-02-15T05:55:05;6.40;59.10
12769;DHT22;6448;48.916;8.990;2023-02-15T05:56:08;6.40;59.20
12769;DHT22;6448;48.916;8.990;2023-02-15T05:57:10;6.40;59.20
12769;DHT22;6448;48.916;8.990;2023-02-15T05:58:11;6.40;59.20
12769;DHT22;6448;48.916;8.990;2023-02-15T05:59:12;6.40;59.20
12769;DHT22;6448;48.916;8.990;2023-02-15T06:00:14;6.40;59.20
12769;DHT22;6448;48.916;8.990;2023-02-15T06:01:18;6.40;59.20
12769;DHT22;6448;48.916;8.990;2023-02-15T06:02:19;6.40;59.20
12769;DHT22;6448;48.916;8.990;2023-02-15T06:03:21;6.40;59.20
12769;DHT22;6448;48.916;8.990;2023-02-15T06:04:22;6.40;59.20
12769;DHT22;6448;48.916;8.990;2023-02-15T06:05:24;6.40;59.20
12769;DHT22;6448;48.916;8.990;2023-02-15T06:06:25;6.40;59.20
12769;DHT22;6448;48.916;8.990;2023-02-15T06:07:26;6.50;59.30
12769;DHT22;6448;48.916;8.990;2023-02-15T06:08:27;6.40;59.20
12769;DHT22;6448;48.916;8.990;2023-02-15T06:09:30;6.30;59.20
12769;DHT22;6448;48.916;8.990;2023-02-15T06:10:32;6.40;59.30
12769;DHT22;6448;48.916;8.990;2023-02-15T06:11:33;6.30;59.30
12769;DHT22;6448;48.916;8.990;2023-02-15T06:12:34;6.30;59.30
12769;DHT22;6448;48.916;8.990;2023-02-15T06:13:35;6.40;59.40
12769;DHT22;6448;48.916;8.990;2023-02-15T06:14:37;6.40;59.30
12769;DHT22;6448;48.916;8.990;2023-02-15T06:15:38;6.40;59.30
12769;DHT22;6448;48.916;8.990;2023-02-15T06:16:40;6.40;59.30
12769;DHT22;6448;48.916;8.990;2023-02-15T06:17:42;6.30;59.30
12769;DHT22;6448;48.916;8.990;2023-02-15T06:18:42;6.40;59.40
12769;DHT22;6448;48.916;8.990;2023-02-15T06:19:44;6.40;59.40
12769;DHT22;6448;48.916;8.990;2023-02-15T06:20:45;6.30;59.30
12769;DHT22;6448;48.916;8.990;2023-02-15T06:21:47;6.40;59.40
12769;DHT22;6448;48.916;8.990;2023-02-15T06:22:49;6.40;59.30
12769;DHT22;6448;48.916;8.990;2023-02-15T06:23:50;6.40;59.30
12769;DHT22;6448;48.916;8.990;2023-02-15T06:24:53;6.40;59.30
12769;DHT22;6448;48.916;8.990;2023-02-15T06:25:53;6.40;59.30
12769;DHT22;6448;48.916;8.990;2023-02-15T06:26:55;6.40;59.20
12769;DHT22;6448;48.916;8.990;2023-02-15T06:27:56;6.40;59.20
12769;DHT22;6448;48.916;8.990;2023-02-15T06:28:58;6.40;59.20
12769;DHT22;6448;48.916;8.990;2023-02-15T06:29:58;6.40;59.20
12769;DHT22;6448;48.916;8.990;2023-02-15T06:31:00;6.40;59.20
12769;DHT22;6448;48.916;8.990;2023-02-15T06:32:01;6.40;59.20
12769;DHT22;6448;48.916;8.990;2023-02-15T06:33:03;6.40;59.20
12769;DHT22;6448;48.916;8.990;2023-02-15T06:34:04;6.40;59.20
12769;DHT22;6448;48.916;8.990;2023-02-15T06:35:06;6.40;59.20
12769;DHT22;6448;48.916;8.990;2023-02-15T06:36:07;6.40;59.20
12769;DHT22;6448;48.916;8.990;2023-02-15T06:37:09;6.40;59.10
12769;DHT22;6448;48.916;8.990;2023-02-15T06:38:10;6.40;59.10
12769;DHT22;6448;48.916;8.990;2023-02-15T06:39:12;6.40;59.10
12769;DHT22;6448;48.916;8.990;2023-02-15T06:40:15;6.40;59.10
12769;DHT22;6448;48.916;8.990;2023-02-15T06:41:16;6.50;59.10
12769;DHT22;6448;48.916;8.990;2023-02-15T06:42:18;6.40;59.00
12769;DHT22;6448;48.916;8.990;2023-02-15T06:43:19;6.40;59.10
12769;DHT22;6448;48.916;8.990;2023-02-15T06:44:20;6.40;59.00
12769;DHT22;6448;48.916;8.990;2023-02-15T06:45:21;6.40;59.10
12769;DHT22;6448;48.916;8.990;2023-02-15T06:46:23;6.40;59.00
12769;DHT22;6448;48.916;8.990;2023-02-15T06:47:24;6.40;59.10
12769;DHT22;6448;48.916;8.990;2023-02-15T06:48:26;6.40;59.10
12769;DHT22;6448;48.916;8.990;2023-02-15T06:49:27;6.40;59.10
12769;DHT22;6448;48.916;8.990;2023-02-15T06:50:28;6.40;59.00
12769;DHT22;6448;48.916;8.990;2023-02-15T06:51:29;6.40;59.10
12769;DHT22;6448;48.916;8.990;2023-02-15T06:52:31;6.40;59.00
12769;DHT22;6448;48.916;8.990;2023-02-15T06:53:32;6.40;59.00
12769;DHT22;6448;48.916;8.990;2023-02-15T06:54:33;6.40;59.00
12769;DHT22;6448;48.916;8.990;2023-02-15T06:55:36;6.40;59.10
12769;DHT22;6448;48.916;8.990;2023-02-15T06:56:37;6.40;59.10
12769;DHT22;6448;48.916;8.990;2023-02-15T06:57:39;6.40;59.00
12769;DHT22;6448;48.916;8.990;2023-02-15T06:58:41;6.40;59.00
12769;DHT22;6448;48.916;8.990;2023-02-15T06:59:42;6.40;59.00
12769;DHT22;6448;48.916;8.990;2023-02-15T07:00:44;6.40;59.00
12769;DHT22;6448;48.916;8.990;2023-02-15T07:01:45;6.40;59.00